The Official Home Page Of The Professional Rodeo Cowboys Association PRCA RAM WORLD STANDINGS
ProRodeoTv.Com
Red

PRCA Stock Statistics

SEARCH BY:
Stock Rodeo Contestant Stock Contractor

Dakota Macom

EVENT:
Unofficial results reflect placement at time of Web posting and can change.

SEASON BREAKDOWN

Season Attempts Qual Rides Re-rides Ride %
2018 27 5 0 18.52 %
Totals 27 5 0 0.00 %

RODEO DETAIL

Date Location Rodeo SC Brand Ride Comments Stock Score Contestant Score
7/4/2018 Mandan, ND Mandan Rodeo Days DK 373 0.00 0.00 / 0.00 0.00 / 0.00
7/3/2018 Belle Fourche, SD Black Hills Roundup PR 584C 0.00 23.50 / 23.50 0.00 / 0.00
6/30/2018 Lehi, UT Lehi Roundup FR 417 0.00 19.00 / 22.00 0.00 / 0.00
6/29/2018 Steamboat Springs, CO Steamboat Springs Pro Rodeo Series RM 03 0.00 19.50 / 22.00 0.00 / 0.00
6/27/2018 Springdale, AR Rodeo of The Ozarks SS 723 0.00 22.50 / 21.00 0.00 / 0.00
5/5/2018 Guymon, OK Guymon Pioneer Days Rodeo CR 348 0.00 21.00 / 20.50 0.00 / 0.00
5/4/2018 Haysville, KS Haysville Saddle Club Rodeo FR 51 0.00 22.00 / 22.00 0.00 / 0.00
4/27/2018 Del Rio, TX 41st George Paul Memorial Extreme Bull Riding UP 038 0.00 22.00 / 22.00 0.00 / 0.00
4/27/2018 Jourdanton, TX Ropin Dreams Cowboy Fellowship PRCA Rodeo UP 222 0.00 19.50 / 20.00 0.00 / 0.00
4/26/2018 Wharton, TX Wharton County Youth Fair - Xtreme Bulls JK 908 0.00 21.00 / 21.50 0.00 / 0.00
4/14/2018 Lauderdale, MS Semi-Annual Ralph Morgan Rodeo SH 94 72.00 18.00 / 17.00 18.00 / 19.00
4/7/2018 West Plains, MO Professional Bull Riding Extreme Tour CC 705 0.00 20.00 / 20.00 0.00 / 0.00
4/7/2018 West Plains, MO Professional Bull Riding Extreme Tour BF 252 0.00 21.50 / 22.00 0.00 / 0.00
3/31/2018 El Paso, AR Central Ark PRCA Rodeo AN 143 0.00 19.00 / 18.00 0.00 / 0.00
3/24/2018 Springfield, MO Ozark Empire Pro Rodeo BF 34 78.00 20.00 / 19.50 19.00 / 19.50
3/23/2018 Corinth, MS North MS PRCA Rodeo JC 311 0.00 20.50 / 21.00 0.00 / 0.00
3/17/2018 Magnolia, AR Magnolia Stampede KL 47 0.00 21.00 / 20.50 0.00 / 0.00
3/16/2018 Poplar Bluff, MO Black River Pro Rodeo BF 338 86.00 21.00 / 21.00 22.00 / 22.00
2/9/2018 San Angelo, TX San Angelo Rodeo LJ 916 0.00 18.00 / 19.00 0.00 / 0.00
2/2/2018 Mcalester, OK Big V Feeds Pro Rodeo RH 814 0.00 20.00 / 21.00 0.00 / 0.00
1/26/2018 Fort Worth, TX Southwestern Exposition and Livestock Show BF 71Z 0.00 21.50 / 22.00 0.00 / 0.00
1/26/2018 Fort Worth, TX Southwestern Exposition and Livestock Show DK 118 0.00 19.00 / 18.00 0.00 / 0.00
10/28/2017 Winnie, TX Appreciation for Industry Pro Rodeo FR F2A 0.00 22.50 / 21.50 0.00 / 0.00
10/21/2017 Llano, TX Llano Wild West Xtreme Bulls RG 935 82.00 20.00 / 20.00 21.00 / 21.00
10/19/2017 Liberty, TX Trinity Valley Exposition Fair & Rodeo CR 150 0.00 21.50 / 21.00 0.00 / 0.00
Page of 2
Per Page
Official Gear Of The PRCA

 
 
 
PRCA National Sponsors
MGM Grand Polaris Ranger
Copyright © 2018 Professional Rodeo Cowboys Association. All rights reserved. No portion of ProRodeo.com may be duplicated, redistributed or manipulated in any form. By accessing any information beyond this page, you agree to abide by the Terms of Use.
PRCA Wrangler National Finals Rodeo Wrangler ProRodeo Tour Finale Presented by Justin Boots Xtreme Bulls RAM National Circuit Finals Rodeo ProRodeo Gear ProRodeo Tour